sensor_id;sensor_type;location;lat;lon;timestamp;temperature;humidity
71837;DHT22;59686;51.716;7.016;2023-02-28T00:00:26;8.00;68.90
71837;DHT22;59686;51.716;7.016;2023-02-28T00:02:52;8.00;68.80
71837;DHT22;59686;51.716;7.016;2023-02-28T00:05:22;7.90;68.80
71837;DHT22;59686;51.716;7.016;2023-02-28T00:07:50;7.90;68.80
71837;DHT22;59686;51.716;7.016;2023-02-28T00:10:21;7.90;68.80
71837;DHT22;59686;51.716;7.016;2023-02-28T00:12:49;7.90;68.90
71837;DHT22;59686;51.716;7.016;2023-02-28T00:15:16;7.90;68.80
71837;DHT22;59686;51.716;7.016;2023-02-28T00:17:42;7.90;68.90
71837;DHT22;59686;51.716;7.016;2023-02-28T00:20:08;8.00;68.90
71837;DHT22;59686;51.716;7.016;2023-02-28T00:22:36;7.90;68.90
71837;DHT22;59686;51.716;7.016;2023-02-28T00:25:03;7.90;68.90
71837;DHT22;59686;51.716;7.016;2023-02-28T00:27:29;7.90;68.80
71837;DHT22;59686;51.716;7.016;2023-02-28T00:29:55;7.90;69.00
71837;DHT22;59686;51.716;7.016;2023-02-28T00:32:21;7.90;68.80
71837;DHT22;59686;51.716;7.016;2023-02-28T00:34:47;7.90;68.80
71837;DHT22;59686;51.716;7.016;2023-02-28T00:37:12;7.90;68.80
71837;DHT22;59686;51.716;7.016;2023-02-28T00:39:39;7.80;68.70
71837;DHT22;59686;51.716;7.016;2023-02-28T00:42:05;7.90;68.80
71837;DHT22;59686;51.716;7.016;2023-02-28T00:44:31;7.80;68.70
71837;DHT22;59686;51.716;7.016;2023-02-28T00:46:58;7.80;68.80
71837;DHT22;59686;51.716;7.016;2023-02-28T00:49:25;7.80;68.80
71837;DHT22;59686;51.716;7.016;2023-02-28T00:51:52;7.70;68.60
71837;DHT22;59686;51.716;7.016;2023-02-28T00:54:18;7.80;68.70
71837;DHT22;59686;51.716;7.016;2023-02-28T00:56:44;7.80;68.70
71837;DHT22;59686;51.716;7.016;2023-02-28T00:59:12;7.80;68.70
71837;DHT22;59686;51.716;7.016;2023-02-28T01:01:38;7.80;68.70
71837;DHT22;59686;51.716;7.016;2023-02-28T01:04:04;7.80;68.80
71837;DHT22;59686;51.716;7.016;2023-02-28T01:06:31;7.80;68.70
71837;DHT22;59686;51.716;7.016;2023-02-28T01:08:58;7.80;68.70
71837;DHT22;59686;51.716;7.016;2023-02-28T01:11:24;7.80;68.70
71837;DHT22;59686;51.716;7.016;2023-02-28T01:13:50;7.70;68.60
71837;DHT22;59686;51.716;7.016;2023-02-28T01:16:16;7.70;68.60
71837;DHT22;59686;51.716;7.016;2023-02-28T01:18:42;7.70;68.50
71837;DHT22;59686;51.716;7.016;2023-02-28T01:21:10;7.70;68.60
71837;DHT22;59686;51.716;7.016;2023-02-28T01:23:37;7.70;68.50
71837;DHT22;59686;51.716;7.016;2023-02-28T01:26:09;7.70;68.60
71837;DHT22;59686;51.716;7.016;2023-02-28T01:28:35;7.70;68.50
71837;DHT22;59686;51.716;7.016;2023-02-28T01:31:01;7.70;68.50
71837;DHT22;59686;51.716;7.016;2023-02-28T01:33:31;7.60;68.50
71837;DHT22;59686;51.716;7.016;2023-02-28T01:38:30;7.60;68.40
71837;DHT22;59686;51.716;7.016;2023-02-28T01:40:55;7.60;68.50
71837;DHT22;59686;51.716;7.016;2023-02-28T01:46:12;7.60;69.20
71837;DHT22;59686;51.716;7.016;2023-02-28T01:48:51;7.60;68.40
71837;DHT22;59686;51.716;7.016;2023-02-28T01:54:03;7.60;68.50
71837;DHT22;59686;51.716;7.016;2023-02-28T01:56:33;7.60;68.40
71837;DHT22;59686;51.716;7.016;2023-02-28T01:59:02;7.70;68.50
71837;DHT22;59686;51.716;7.016;2023-02-28T02:01:29;7.60;68.50
71837;DHT22;59686;51.716;7.016;2023-02-28T02:03:58;7.50;68.40
71837;DHT22;59686;51.716;7.016;2023-02-28T02:06:27;7.60;68.40
71837;DHT22;59686;51.716;7.016;2023-02-28T02:08:55;7.60;68.40
71837;DHT22;59686;51.716;7.016;2023-02-28T02:11:23;7.60;68.40
71837;DHT22;59686;51.716;7.016;2023-02-28T02:25:26;7.50;68.30
71837;DHT22;59686;51.716;7.016;2023-02-28T02:36:37;7.50;68.30
71837;DHT22;59686;51.716;7.016;2023-02-28T02:39:06;7.40;68.20
71837;DHT22;59686;51.716;7.016;2023-02-28T02:41:52;7.40;68.10
71837;DHT22;59686;51.716;7.016;2023-02-28T02:46:59;7.40;68.10
71837;DHT22;59686;51.716;7.016;2023-02-28T02:49:31;7.40;68.10
71837;DHT22;59686;51.716;7.016;2023-02-28T02:52:04;7.40;68.10
71837;DHT22;59686;51.716;7.016;2023-02-28T02:54:35;7.40;68.10
71837;DHT22;59686;51.716;7.016;2023-02-28T02:57:05;7.40;68.30
71837;DHT22;59686;51.716;7.016;2023-02-28T02:59:36;7.40;68.20
71837;DHT22;59686;51.716;7.016;2023-02-28T03:02:05;7.40;68.00
71837;DHT22;59686;51.716;7.016;2023-02-28T03:04:43;7.40;68.10
71837;DHT22;59686;51.716;7.016;2023-02-28T03:07:10;7.40;68.10
71837;DHT22;59686;51.716;7.016;2023-02-28T03:09:36;7.40;68.10
71837;DHT22;59686;51.716;7.016;2023-02-28T03:12:02;7.40;68.00
71837;DHT22;59686;51.716;7.016;2023-02-28T03:20:17;7.30;68.00
71837;DHT22;59686;51.716;7.016;2023-02-28T03:29:15;7.30;68.00
71837;DHT22;59686;51.716;7.016;2023-02-28T03:34:14;7.30;67.80
71837;DHT22;59686;51.716;7.016;2023-02-28T03:36:53;7.30;67.80
71837;DHT22;59686;51.716;7.016;2023-02-28T03:39:43;7.20;67.80
71837;DHT22;59686;51.716;7.016;2023-02-28T03:44:59;7.20;68.50
71837;DHT22;59686;51.716;7.016;2023-02-28T03:50:27;7.20;67.70
71837;DHT22;59686;51.716;7.016;2023-02-28T03:53:01;7.20;67.70
71837;DHT22;59686;51.716;7.016;2023-02-28T03:55:34;7.20;67.70
71837;DHT22;59686;51.716;7.016;2023-02-28T03:58:37;7.20;67.60
71837;DHT22;59686;51.716;7.016;2023-02-28T04:01:09;7.20;67.70
71837;DHT22;59686;51.716;7.016;2023-02-28T04:03:38;7.20;67.60
71837;DHT22;59686;51.716;7.016;2023-02-28T04:06:07;7.10;67.60
71837;DHT22;59686;51.716;7.016;2023-02-28T04:08:34;7.10;67.60
71837;DHT22;59686;51.716;7.016;2023-02-28T04:11:11;7.10;67.60
71837;DHT22;59686;51.716;7.016;2023-02-28T04:13:39;7.10;67.50
71837;DHT22;59686;51.716;7.016;2023-02-28T04:16:08;7.10;67.60
71837;DHT22;59686;51.716;7.016;2023-02-28T04:18:43;7.10;67.50
71837;DHT22;59686;51.716;7.016;2023-02-28T04:21:09;7.10;67.40
71837;DHT22;59686;51.716;7.016;2023-02-28T04:23:35;7.10;67.50
71837;DHT22;59686;51.716;7.016;2023-02-28T04:26:01;7.10;67.50
71837;DHT22;59686;51.716;7.016;2023-02-28T04:28:28;7.10;67.50
71837;DHT22;59686;51.716;7.016;2023-02-28T04:31:01;7.10;67.50
71837;DHT22;59686;51.716;7.016;2023-02-28T04:33:28;7.10;67.50
71837;DHT22;59686;51.716;7.016;2023-02-28T04:36:05;7.10;67.50
71837;DHT22;59686;51.716;7.016;2023-02-28T04:38:37;7.00;67.40
71837;DHT22;59686;51.716;7.016;2023-02-28T04:41:03;7.00;67.40
71837;DHT22;59686;51.716;7.016;2023-02-28T04:43:36;7.00;67.40
71837;DHT22;59686;51.716;7.016;2023-02-28T04:46:04;7.00;67.30
71837;DHT22;59686;51.716;7.016;2023-02-28T04:48:32;7.00;67.30
71837;DHT22;59686;51.716;7.016;2023-02-28T04:51:03;7.00;67.30
71837;DHT22;59686;51.716;7.016;2023-02-28T04:53:29;7.00;67.30
71837;DHT22;59686;51.716;7.016;2023-02-28T04:55:56;7.00;67.30
71837;DHT22;59686;51.716;7.016;2023-02-28T04:58:21;7.00;67.40
71837;DHT22;59686;51.716;7.016;2023-02-28T05:01:06;7.00;67.30
71837;DHT22;59686;51.716;7.016;2023-02-28T05:03:40;6.90;67.30
71837;DHT22;59686;51.716;7.016;2023-02-28T05:06:09;6.90;67.30
71837;DHT22;59686;51.716;7.016;2023-02-28T05:08:53;7.00;67.40
71837;DHT22;59686;51.716;7.016;2023-02-28T05:11:27;6.90;67.30
71837;DHT22;59686;51.716;7.016;2023-02-28T05:13:54;6.90;67.40
71837;DHT22;59686;51.716;7.016;2023-02-28T05:16:21;6.90;67.40
71837;DHT22;59686;51.716;7.016;2023-02-28T05:18:47;6.90;67.40
71837;DHT22;59686;51.716;7.016;2023-02-28T05:21:33;6.90;67.30
71837;DHT22;59686;51.716;7.016;2023-02-28T05:24:11;6.90;67.30
71837;DHT22;59686;51.716;7.016;2023-02-28T05:26:42;6.90;67.30
71837;DHT22;59686;51.716;7.016;2023-02-28T05:29:08;6.90;67.30
71837;DHT22;59686;51.716;7.016;2023-02-28T05:31:34;6.90;67.30
71837;DHT22;59686;51.716;7.016;2023-02-28T05:34:01;6.90;67.30
71837;DHT22;59686;51.716;7.016;2023-02-28T05:36:27;6.80;67.20
71837;DHT22;59686;51.716;7.016;2023-02-28T05:38:53;6.80;67.20
71837;DHT22;59686;51.716;7.016;2023-02-28T05:41:19;6.80;67.20
71837;DHT22;59686;51.716;7.016;2023-02-28T05:43:46;6.80;67.20
71837;DHT22;59686;51.716;7.016;2023-02-28T05:46:12;6.80;67.20
71837;DHT22;59686;51.716;7.016;2023-02-28T05:48:39;6.80;67.10
71837;DHT22;59686;51.716;7.016;2023-02-28T05:51:07;6.80;67.20
71837;DHT22;59686;51.716;7.016;2023-02-28T05:53:33;6.70;67.10
71837;DHT22;59686;51.716;7.016;2023-02-28T05:55:59;6.80;67.20
71837;DHT22;59686;51.716;7.016;2023-02-28T05:58:26;6.80;67.20
71837;DHT22;59686;51.716;7.016;2023-02-28T06:00:59;6.80;67.10
71837;DHT22;59686;51.716;7.016;2023-02-28T06:03:25;6.80;67.10
71837;DHT22;59686;51.716;7.016;2023-02-28T06:05:51;6.70;67.20
71837;DHT22;59686;51.716;7.016;2023-02-28T06:08:17;6.70;67.10
71837;DHT22;59686;51.716;7.016;2023-02-28T06:10:43;6.70;67.10
71837;DHT22;59686;51.716;7.016;2023-02-28T06:13:11;6.70;67.20
71837;DHT22;59686;51.716;7.016;2023-02-28T06:15:38;6.70;67.10
71837;DHT22;59686;51.716;7.016;2023-02-28T06:18:04;6.70;67.10
71837;DHT22;59686;51.716;7.016;2023-02-28T06:20:30;6.60;67.10
71837;DHT22;59686;51.716;7.016;2023-02-28T06:22:57;6.70;67.10
71837;DHT22;59686;51.716;7.016;2023-02-28T06:25:26;6.70;67.10
71837;DHT22;59686;51.716;7.016;2023-02-28T06:27:53;6.60;67.00
71837;DHT22;59686;51.716;7.016;2023-02-28T06:30:18;6.70;67.10
71837;DHT22;59686;51.716;7.016;2023-02-28T06:32:51;6.70;67.10
71837;DHT22;59686;51.716;7.016;2023-02-28T06:35:17;6.70;67.20
71837;DHT22;59686;51.716;7.016;2023-02-28T06:37:43;6.60;67.10
71837;DHT22;59686;51.716;7.016;2023-02-28T06:40:09;6.60;67.10
71837;DHT22;59686;51.716;7.016;2023-02-28T06:42:35;6.70;67.10
71837;DHT22;59686;51.716;7.016;2023-02-28T06:45:01;6.60;67.10
71837;DHT22;59686;51.716;7.016;2023-02-28T06:47:30;6.60;67.00
71837;DHT22;59686;51.716;7.016;2023-02-28T06:49:56;6.80;67.20
71837;DHT22;59686;51.716;7.016;2023-02-28T06:52:22;6.60;67.10
71837;DHT22;59686;51.716;7.016;2023-02-28T06:54:47;6.60;67.10
71837;DHT22;59686;51.716;7.016;2023-02-28T06:57:27;6.60;67.10
71837;DHT22;59686;51.716;7.016;2023-02-28T06:59:53;6.60;67.00
71837;DHT22;59686;51.716;7.016;2023-02-28T07:02:19;6.60;67.00
71837;DHT22;59686;51.716;7.016;2023-02-28T07:04:45;6.60;67.10
71837;DHT22;59686;51.716;7.016;2023-02-28T07:07:10;6.70;67.10
71837;DHT22;59686;51.716;7.016;2023-02-28T07:09:36;6.60;67.10
71837;DHT22;59686;51.716;7.016;2023-02-28T07:12:02;6.60;67.10
71837;DHT22;59686;51.716;7.016;2023-02-28T07:14:28;6.60;67.10
71837;DHT22;59686;51.716;7.016;2023-02-28T07:16:53;6.60;67.10
71837;DHT22;59686;51.716;7.016;2023-02-28T07:19:19;6.60;67.20
71837;DHT22;59686;51.716;7.016;2023-02-28T07:21:45;6.60;67.10
71837;DHT22;59686;51.716;7.016;2023-02-28T07:24:10;6.50;67.10
71837;DHT22;59686;51.716;7.016;2023-02-28T07:26:36;6.50;67.10
71837;DHT22;59686;51.716;7.016;2023-02-28T07:29:02;6.50;67.10
71837;DHT22;59686;51.716;7.016;2023-02-28T07:31:28;6.50;68.00
71837;DHT22;59686;51.716;7.016;2023-02-28T07:33:53;6.50;67.30
71837;DHT22;59686;51.716;7.016;2023-02-28T07:36:22;6.50;67.30
71837;DHT22;59686;51.716;7.016;2023-02-28T07:38:50;6.50;67.30
71837;DHT22;59686;51.716;7.016;2023-02-28T07:41:20;6.50;67.30
71837;DHT22;59686;51.716;7.016;2023-02-28T07:43:46;6.50;67.40
71837;DHT22;59686;51.716;7.016;2023-02-28T07:46:14;6.50;67.50
71837;DHT22;59686;51.716;7.016;2023-02-28T07:48:41;6.50;67.40
71837;DHT22;59686;51.716;7.016;2023-02-28T07:51:07;6.50;67.40
71837;DHT22;59686;51.716;7.016;2023-02-28T07:53:32;6.60;67.50
71837;DHT22;59686;51.716;7.016;2023-02-28T07:56:01;6.50;67.70
71837;DHT22;59686;51.716;7.016;2023-02-28T07:58:28;6.50;67.60
71837;DHT22;59686;51.716;7.016;2023-02-28T08:00:55;6.50;67.60
71837;DHT22;59686;51.716;7.016;2023-02-28T08:03:22;6.50;67.60
71837;DHT22;59686;51.716;7.016;2023-02-28T08:05:51;6.50;67.70
71837;DHT22;59686;51.716;7.016;2023-02-28T08:08:18;6.50;67.70
71837;DHT22;59686;51.716;7.016;2023-02-28T08:10:43;6.50;67.70
71837;DHT22;59686;51.716;7.016;2023-02-28T08:13:09;6.50;67.70
71837;DHT22;59686;51.716;7.016;2023-02-28T08:15:35;6.70;67.80
71837;DHT22;59686;51.716;7.016;2023-02-28T08:18:03;6.50;67.70
71837;DHT22;59686;51.716;7.016;2023-02-28T08:20:29;6.50;67.70
71837;DHT22;59686;51.716;7.016;2023-02-28T08:22:56;6.70;67.80
71837;DHT22;59686;51.716;7.016;2023-02-28T08:25:21;6.50;67.80
71837;DHT22;59686;51.716;7.016;2023-02-28T08:27:47;6.50;67.70
71837;DHT22;59686;51.716;7.016;2023-02-28T08:30:14;6.50;67.70
71837;DHT22;59686;51.716;7.016;2023-02-28T08:32:40;6.50;67.80
71837;DHT22;59686;51.716;7.016;2023-02-28T08:35:06;6.50;67.70
71837;DHT22;59686;51.716;7.016;2023-02-28T08:37:34;6.50;67.70
71837;DHT22;59686;51.716;7.016;2023-02-28T08:40:00;6.60;67.80
71837;DHT22;59686;51.716;7.016;2023-02-28T08:42:25;6.60;67.90
71837;DHT22;59686;51.716;7.016;2023-02-28T08:44:53;6.60;67.70
71837;DHT22;59686;51.716;7.016;2023-02-28T08:47:19;6.60;67.70
71837;DHT22;59686;51.716;7.016;2023-02-28T08:49:45;6.50;67.60
71837;DHT22;59686;51.716;7.016;2023-02-28T08:52:11;6.60;67.60
71837;DHT22;59686;51.716;7.016;2023-02-28T08:54:37;6.60;67.50
71837;DHT22;59686;51.716;7.016;2023-02-28T08:57:03;6.60;67.40
71837;DHT22;59686;51.716;7.016;2023-02-28T08:59:29;6.50;67.40
71837;DHT22;59686;51.716;7.016;2023-02-28T09:01:58;6.60;67.40
71837;DHT22;59686;51.716;7.016;2023-02-28T09:04:24;6.50;67.40
71837;DHT22;59686;51.716;7.016;2023-02-28T09:06:50;6.60;67.30
71837;DHT22;59686;51.716;7.016;2023-02-28T09:09:16;6.60;67.20
71837;DHT22;59686;51.716;7.016;2023-02-28T09:11:42;6.60;67.20
71837;DHT22;59686;51.716;7.016;2023-02-28T09:14:07;6.60;67.10
71837;DHT22;59686;51.716;7.016;2023-02-28T09:16:34;6.60;66.80
71837;DHT22;59686;51.716;7.016;2023-02-28T09:19:00;6.60;66.50
71837;DHT22;59686;51.716;7.016;2023-02-28T09:21:26;6.60;66.70
71837;DHT22;59686;51.716;7.016;2023-02-28T09:23:52;6.60;66.60
71837;DHT22;59686;51.716;7.016;2023-02-28T09:26:23;6.60;66.60
71837;DHT22;59686;51.716;7.016;2023-02-28T09:28:50;6.70;66.50
71837;DHT22;59686;51.716;7.016;2023-02-28T09:31:20;6.60;66.30
71837;DHT22;59686;51.716;7.016;2023-02-28T09:33:48;6.60;66.30
71837;DHT22;59686;51.716;7.016;2023-02-28T09:36:14;6.60;66.20
71837;DHT22;59686;51.716;7.016;2023-02-28T09:38:39;6.70;66.20
71837;DHT22;59686;51.716;7.016;2023-02-28T09:41:24;6.60;66.10
71837;DHT22;59686;51.716;7.016;2023-02-28T09:43:55;6.50;65.90
71837;DHT22;59686;51.716;7.016;2023-02-28T09:46:41;6.60;65.80
71837;DHT22;59686;51.716;7.016;2023-02-28T09:49:14;6.60;65.60
71837;DHT22;59686;51.716;7.016;2023-02-28T09:52:01;6.60;65.40
71837;DHT22;59686;51.716;7.016;2023-02-28T09:54:29;6.60;65.70
71837;DHT22;59686;51.716;7.016;2023-02-28T10:10:27;6.60;65.40
71837;DHT22;59686;51.716;7.016;2023-02-28T10:12:57;6.60;64.80
71837;DHT22;59686;51.716;7.016;2023-02-28T10:15:26;6.50;64.50
71837;DHT22;59686;51.716;7.016;2023-02-28T10:18:11;6.60;64.00
71837;DHT22;59686;51.716;7.016;2023-02-28T10:20:39;6.60;63.60
71837;DHT22;59686;51.716;7.016;2023-02-28T10:23:11;6.60;63.40
71837;DHT22;59686;51.716;7.016;2023-02-28T10:25:38;6.60;63.20
71837;DHT22;59686;51.716;7.016;2023-02-28T10:30:33;6.60;62.90
71837;DHT22;59686;51.716;7.016;2023-02-28T10:33:02;6.60;63.00
71837;DHT22;59686;51.716;7.016;2023-02-28T10:35:28;6.60;62.60
71837;DHT22;59686;51.716;7.016;2023-02-28T10:37:59;6.70;62.70
71837;DHT22;59686;51.716;7.016;2023-02-28T10:40:33;6.60;62.60
71837;DHT22;59686;51.716;7.016;2023-02-28T10:45:38;6.60;61.90
71837;DHT22;59686;51.716;7.016;2023-02-28T11:03:58;6.70;60.90
71837;DHT22;59686;51.716;7.016;2023-02-28T11:06:30;6.70;60.50
71837;DHT22;59686;51.716;7.016;2023-02-28T11:08:58;6.60;60.50
71837;DHT22;59686;51.716;7.016;2023-02-28T11:11:27;6.70;61.50
71837;DHT22;59686;51.716;7.016;2023-02-28T11:13:57;6.60;61.00
71837;DHT22;59686;51.716;7.016;2023-02-28T11:16:36;6.60;61.30
71837;DHT22;59686;51.716;7.016;2023-02-28T11:19:04;6.60;61.60
71837;DHT22;59686;51.716;7.016;2023-02-28T11:21:36;6.60;61.60
71837;DHT22;59686;51.716;7.016;2023-02-28T11:24:35;6.60;61.20
71837;DHT22;59686;51.716;7.016;2023-02-28T11:27:02;6.70;61.70
71837;DHT22;59686;51.716;7.016;2023-02-28T11:29:32;6.70;61.30
71837;DHT22;59686;51.716;7.016;2023-02-28T11:34:42;6.70;61.80
71837;DHT22;59686;51.716;7.016;2023-02-28T11:37:16;6.90;61.60
71837;DHT22;59686;51.716;7.016;2023-02-28T11:39:44;6.70;61.50
71837;DHT22;59686;51.716;7.016;2023-02-28T11:55:37;6.80;61.20
71837;DHT22;59686;51.716;7.016;2023-02-28T11:58:28;6.80;61.10
71837;DHT22;59686;51.716;7.016;2023-02-28T12:19:34;6.80;61.30
71837;DHT22;59686;51.716;7.016;2023-02-28T12:22:31;6.80;61.00
71837;DHT22;59686;51.716;7.016;2023-02-28T12:27:36;6.90;61.30
71837;DHT22;59686;51.716;7.016;2023-02-28T12:30:28;6.90;61.50
71837;DHT22;59686;51.716;7.016;2023-02-28T12:33:07;6.90;61.70
71837;DHT22;59686;51.716;7.016;2023-02-28T12:35:39;6.90;61.90
71837;DHT22;59686;51.716;7.016;2023-02-28T12:38:29;6.90;62.00
71837;DHT22;59686;51.716;7.016;2023-02-28T12:41:01;6.90;62.00
71837;DHT22;59686;51.716;7.016;2023-02-28T12:43:34;6.90;62.00
71837;DHT22;59686;51.716;7.016;2023-02-28T12:46:22;6.90;61.90
71837;DHT22;59686;51.716;7.016;2023-02-28T12:49:10;7.00;61.80
71837;DHT22;59686;51.716;7.016;2023-02-28T12:51:37;7.00;61.90
71837;DHT22;59686;51.716;7.016;2023-02-28T12:54:19;6.80;61.60
71837;DHT22;59686;51.716;7.016;2023-02-28T13:10:44;7.00;61.80
71837;DHT22;59686;51.716;7.016;2023-02-28T13:13:16;7.10;61.80
71837;DHT22;59686;51.716;7.016;2023-02-28T13:15:58;7.10;61.80
71837;DHT22;59686;51.716;7.016;2023-02-28T13:21:07;7.10;61.50
71837;DHT22;59686;51.716;7.016;2023-02-28T13:24:04;7.10;61.10
71837;DHT22;59686;51.716;7.016;2023-02-28T13:27:10;7.20;61.00
71837;DHT22;59686;51.716;7.016;2023-02-28T13:35:12;7.10;61.50
71837;DHT22;59686;51.716;7.016;2023-02-28T13:37:35;7.20;61.40
71837;DHT22;59686;51.716;7.016;2023-02-28T13:40:30;7.20;61.40
71837;DHT22;59686;51.716;7.016;2023-02-28T13:43:02;7.20;61.40
71837;DHT22;59686;51.716;7.016;2023-02-28T13:45:29;7.30;61.70
71837;DHT22;59686;51.716;7.016;2023-02-28T13:50:36;7.30;61.40
71837;DHT22;59686;51.716;7.016;2023-02-28T13:59:01;7.30;61.70
71837;DHT22;59686;51.716;7.016;2023-02-28T14:06:57;7.40;61.40
71837;DHT22;59686;51.716;7.016;2023-02-28T14:09:34;7.30;61.40
71837;DHT22;59686;51.716;7.016;2023-02-28T14:15:25;7.40;61.10
71837;DHT22;59686;51.716;7.016;2023-02-28T14:17:53;7.40;61.40
71837;DHT22;59686;51.716;7.016;2023-02-28T14:20:20;7.40;61.40
71837;DHT22;59686;51.716;7.016;2023-02-28T14:23:02;7.40;61.30
71837;DHT22;59686;51.716;7.016;2023-02-28T14:31:15;7.50;61.70
71837;DHT22;59686;51.716;7.016;2023-02-28T14:34:23;7.50;61.70
71837;DHT22;59686;51.716;7.016;2023-02-28T14:36:52;7.60;61.80
71837;DHT22;59686;51.716;7.016;2023-02-28T14:39:24;7.60;62.10
71837;DHT22;59686;51.716;7.016;2023-02-28T14:41:51;7.60;62.10
71837;DHT22;59686;51.716;7.016;2023-02-28T14:44:24;7.60;61.90
71837;DHT22;59686;51.716;7.016;2023-02-28T14:46:55;7.60;62.00
71837;DHT22;59686;51.716;7.016;2023-02-28T14:49:30;7.70;61.80
71837;DHT22;59686;51.716;7.016;2023-02-28T14:54:36;7.70;61.80
71837;DHT22;59686;51.716;7.016;2023-02-28T14:57:02;7.70;62.20
71837;DHT22;59686;51.716;7.016;2023-02-28T14:59:34;7.70;62.00
71837;DHT22;59686;51.716;7.016;2023-02-28T15:02:34;7.70;61.80
71837;DHT22;59686;51.716;7.016;2023-02-28T15:05:21;7.80;62.20
71837;DHT22;59686;51.716;7.016;2023-02-28T15:07:48;7.80;62.30
71837;DHT22;59686;51.716;7.016;2023-02-28T15:10:24;7.80;62.40
71837;DHT22;59686;51.716;7.016;2023-02-28T15:13:05;7.80;62.50
71837;DHT22;59686;51.716;7.016;2023-02-28T15:18:44;7.90;62.30
71837;DHT22;59686;51.716;7.016;2023-02-28T15:21:26;7.90;62.30
71837;DHT22;59686;51.716;7.016;2023-02-28T15:24:18;7.80;62.40
71837;DHT22;59686;51.716;7.016;2023-02-28T15:26:54;7.90;62.70
71837;DHT22;59686;51.716;7.016;2023-02-28T15:29:23;7.90;62.70
71837;DHT22;59686;51.716;7.016;2023-02-28T15:32:00;7.90;62.20
71837;DHT22;59686;51.716;7.016;2023-02-28T15:34:42;8.00;62.80
71837;DHT22;59686;51.716;7.016;2023-02-28T15:37:29;8.00;62.90
71837;DHT22;59686;51.716;7.016;2023-02-28T15:40:15;7.90;62.40
71837;DHT22;59686;51.716;7.016;2023-02-28T15:42:41;8.00;62.70
71837;DHT22;59686;51.716;7.016;2023-02-28T15:45:49;8.00;63.00
71837;DHT22;59686;51.716;7.016;2023-02-28T15:48:31;8.10;62.70
71837;DHT22;59686;51.716;7.016;2023-02-28T15:51:01;8.10;62.80
71837;DHT22;59686;51.716;7.016;2023-02-28T15:59:03;8.10;62.80
71837;DHT22;59686;51.716;7.016;2023-02-28T16:01:33;8.10;63.20
71837;DHT22;59686;51.716;7.016;2023-02-28T16:04:01;8.20;63.50
71837;DHT22;59686;51.716;7.016;2023-02-28T16:09:09;8.20;63.30
71837;DHT22;59686;51.716;7.016;2023-02-28T16:11:38;8.20;63.10
71837;DHT22;59686;51.716;7.016;2023-02-28T16:14:05;8.20;62.90
71837;DHT22;59686;51.716;7.016;2023-02-28T16:16:31;8.20;63.60
71837;DHT22;59686;51.716;7.016;2023-02-28T16:18:58;8.20;62.70
71837;DHT22;59686;51.716;7.016;2023-02-28T16:21:26;8.20;62.80
71837;DHT22;59686;51.716;7.016;2023-02-28T16:23:55;8.30;63.30
71837;DHT22;59686;51.716;7.016;2023-02-28T16:26:24;8.30;62.40
71837;DHT22;59686;51.716;7.016;2023-02-28T16:28:52;8.30;63.00
71837;DHT22;59686;51.716;7.016;2023-02-28T16:31:17;8.30;63.00
71837;DHT22;59686;51.716;7.016;2023-02-28T16:33:44;8.30;63.00
71837;DHT22;59686;51.716;7.016;2023-02-28T16:36:23;8.40;63.50
71837;DHT22;59686;51.716;7.016;2023-02-28T16:38:54;8.40;63.40
71837;DHT22;59686;51.716;7.016;2023-02-28T16:41:25;8.40;63.50
71837;DHT22;59686;51.716;7.016;2023-02-28T16:43:55;8.40;62.50
71837;DHT22;59686;51.716;7.016;2023-02-28T16:46:33;8.40;63.00
71837;DHT22;59686;51.716;7.016;2023-02-28T16:49:00;8.40;62.90
71837;DHT22;59686;51.716;7.016;2023-02-28T16:51:29;8.40;63.20
71837;DHT22;59686;51.716;7.016;2023-02-28T16:53:55;8.40;63.20
71837;DHT22;59686;51.716;7.016;2023-02-28T16:56:23;8.40;63.10
71837;DHT22;59686;51.716;7.016;2023-02-28T16:58:50;8.40;63.40
71837;DHT22;59686;51.716;7.016;2023-02-28T17:01:17;8.40;63.40
71837;DHT22;59686;51.716;7.016;2023-02-28T17:03:48;8.40;63.40
71837;DHT22;59686;51.716;7.016;2023-02-28T17:06:23;8.40;63.40
71837;DHT22;59686;51.716;7.016;2023-02-28T17:08:50;8.50;63.50
71837;DHT22;59686;51.716;7.016;2023-02-28T17:11:16;8.40;63.60
71837;DHT22;59686;51.716;7.016;2023-02-28T17:13:42;8.50;63.70
71837;DHT22;59686;51.716;7.016;2023-02-28T17:16:28;8.50;63.60
71837;DHT22;59686;51.716;7.016;2023-02-28T17:19:01;8.50;63.60
71837;DHT22;59686;51.716;7.016;2023-02-28T17:21:27;8.40;63.60
71837;DHT22;59686;51.716;7.016;2023-02-28T17:23:53;8.50;63.80
71837;DHT22;59686;51.716;7.016;2023-02-28T17:26:21;8.50;63.90
71837;DHT22;59686;51.716;7.016;2023-02-28T17:28:50;8.50;63.70
71837;DHT22;59686;51.716;7.016;2023-02-28T17:31:16;8.40;63.80
71837;DHT22;59686;51.716;7.016;2023-02-28T17:33:42;8.50;63.70
71837;DHT22;59686;51.716;7.016;2023-02-28T17:36:16;8.60;63.90
71837;DHT22;59686;51.716;7.016;2023-02-28T17:38:43;8.60;63.90
71837;DHT22;59686;51.716;7.016;2023-02-28T17:41:14;8.60;63.90
71837;DHT22;59686;51.716;7.016;2023-02-28T17:43:40;8.60;63.80
71837;DHT22;59686;51.716;7.016;2023-02-28T17:46:16;8.60;63.70
71837;DHT22;59686;51.716;7.016;2023-02-28T17:48:44;8.60;63.90
71837;DHT22;59686;51.716;7.016;2023-02-28T17:51:12;8.60;63.80
71837;DHT22;59686;51.716;7.016;2023-02-28T17:53:39;8.60;63.80
71837;DHT22;59686;51.716;7.016;2023-02-28T17:56:24;8.60;63.90
71837;DHT22;59686;51.716;7.016;2023-02-28T17:58:52;8.70;63.80
71837;DHT22;59686;51.716;7.016;2023-02-28T18:01:18;8.60;63.80
71837;DHT22;59686;51.716;7.016;2023-02-28T18:03:48;8.60;63.80
71837;DHT22;59686;51.716;7.016;2023-02-28T18:06:18;8.70;63.90
71837;DHT22;59686;51.716;7.016;2023-02-28T18:08:44;8.70;63.90
71837;DHT22;59686;51.716;7.016;2023-02-28T18:11:10;8.80;64.10
71837;DHT22;59686;51.716;7.016;2023-02-28T18:13:52;8.70;63.90
71837;DHT22;59686;51.716;7.016;2023-02-28T18:16:19;8.70;63.80
71837;DHT22;59686;51.716;7.016;2023-02-28T18:18:46;8.80;63.90
71837;DHT22;59686;51.716;7.016;2023-02-28T18:21:14;8.70;63.80
71837;DHT22;59686;51.716;7.016;2023-02-28T18:23:41;8.70;63.70
71837;DHT22;59686;51.716;7.016;2023-02-28T18:26:14;8.70;63.80
71837;DHT22;59686;51.716;7.016;2023-02-28T18:28:40;8.70;63.80
71837;DHT22;59686;51.716;7.016;2023-02-28T18:31:08;8.70;63.90
71837;DHT22;59686;51.716;7.016;2023-02-28T18:33:34;8.60;63.90
71837;DHT22;59686;51.716;7.016;2023-02-28T18:36:00;8.70;63.90
71837;DHT22;59686;51.716;7.016;2023-02-28T18:38:26;8.70;64.00
71837;DHT22;59686;51.716;7.016;2023-02-28T18:40:58;8.70;63.90
71837;DHT22;59686;51.716;7.016;2023-02-28T18:43:32;8.70;63.80
71837;DHT22;59686;51.716;7.016;2023-02-28T18:46:07;8.80;63.90
71837;DHT22;59686;51.716;7.016;2023-02-28T18:48:33;8.70;63.70
71837;DHT22;59686;51.716;7.016;2023-02-28T18:51:09;8.70;63.80
71837;DHT22;59686;51.716;7.016;2023-02-28T18:53:36;8.70;63.90
71837;DHT22;59686;51.716;7.016;2023-02-28T18:56:04;8.70;63.80
71837;DHT22;59686;51.716;7.016;2023-02-28T18:58:30;8.70;63.80
71837;DHT22;59686;51.716;7.016;2023-02-28T19:00:58;8.80;63.90
71837;DHT22;59686;51.716;7.016;2023-02-28T19:03:24;8.70;63.80
71837;DHT22;59686;51.716;7.016;2023-02-28T19:05:57;8.70;63.80